Time;durP1;ratioP1;P1;durP2;ratioP2;P2;SDS_P1;SDS_P2;PMS_P1;PMS_P2;Temp;Humidity;BMP_temperature;BMP_pressure;BME280_temperature;BME280_humidity;BME280_pressure;Samples;Min_cycle;Max_cycle;Signal;HPM_P1;HPM_P2
2022/11/23 00:02:26;;;;;;;75.57;32.25;;;1.30;99.90;;;;;;4939209;29;20290;-87
2022/11/23 00:04:53;;;;;;;74.47;33.72;;;1.20;99.90;;;;;;4939177;29;20583;-88
2022/11/23 00:07:20;;;;;;;71.07;32.42;;;1.50;99.90;;;;;;4939066;29;20678;-88
2022/11/23 00:09:47;;;;;;;62.20;25.90;;;1.70;99.90;;;;;;4939362;29;20271;-89
2022/11/23 00:12:14;;;;;;;60.22;27.27;;;1.30;99.90;;;;;;4939789;29;20207;-88
2022/11/23 00:14:42;;;;;;;54.90;25.98;;;1.40;99.90;;;;;;4939327;29;20318;-88
2022/11/23 00:17:09;;;;;;;63.90;28.85;;;1.60;99.90;;;;;;4938889;29;20203;-88
2022/11/23 00:19:36;;;;;;;51.72;27.05;;;1.60;99.90;;;;;;4938352;29;20231;-87
2022/11/23 00:22:03;;;;;;;59.08;27.73;;;1.10;99.90;;;;;;5042163;22;20251;-86
2022/11/23 00:24:30;;;;;;;63.92;27.65;;;1.20;99.90;;;;;;5068550;28;20239;-86
2022/11/23 00:26:56;;;;;;;60.65;26.92;;;1.70;99.90;;;;;;5067390;28;20337;-86
2022/11/23 00:29:23;;;;;;;55.15;25.55;;;1.60;99.90;;;;;;5065088;28;20203;-84
2022/11/23 00:31:51;;;;;;;56.95;27.10;;;1.60;99.90;;;;;;5066041;28;20223;-85
2022/11/23 00:34:18;;;;;;;59.60;31.20;;;1.60;99.90;;;;;;5065958;28;20234;-84
2022/11/23 00:36:45;;;;;;;65.10;28.00;;;1.40;99.90;;;;;;5068834;28;20205;-87
2022/11/23 00:39:12;;;;;;;55.22;25.35;;;0.60;99.90;;;;;;5067287;28;20213;-86
2022/11/23 00:41:38;;;;;;;73.05;28.38;;;1.60;99.90;;;;;;5067088;28;20227;-85
2022/11/23 00:44:06;;;;;;;63.53;29.33;;;1.70;99.90;;;;;;5067408;28;20282;-85
2022/11/23 00:46:33;;;;;;;54.65;29.90;;;1.10;99.90;;;;;;5066910;28;20250;-86
2022/11/23 00:49:01;;;;;;;66.22;28.30;;;1.20;99.90;;;;;;5065369;28;20213;-85
2022/11/23 00:51:30;;;;;;;60.05;28.05;;;1.10;99.90;;;;;;5064018;28;20223;-85
2022/11/23 00:53:58;;;;;;;58.45;26.38;;;1.50;99.90;;;;;;5067213;28;20207;-84
2022/11/23 00:56:25;;;;;;;55.50;26.48;;;1.00;99.90;;;;;;5065093;28;20310;-86
2022/11/23 00:58:54;;;;;;;57.88;29.25;;;1.70;99.90;;;;;;5064884;28;20289;-85
2022/11/23 01:01:22;;;;;;;59.13;27.05;;;1.30;99.90;;;;;;5065034;28;20306;-85
2022/11/23 01:03:52;;;;;;;46.40;25.58;;;1.50;99.90;;;;;;5064742;28;20290;-85
2022/11/23 01:06:23;;;;;;;51.50;26.60;;;1.00;99.90;;;;;;5064688;28;20713;-85
2022/11/23 01:08:55;;;;;;;66.22;26.02;;;1.40;99.90;;;;;;5064063;28;20267;-85
2022/11/23 01:11:24;;;;;;;54.13;25.67;;;1.30;99.90;;;;;;5063854;28;20242;-85
2022/11/23 01:13:51;;;;;;;64.28;29.02;;;0.70;99.90;;;;;;5063817;28;20215;-85
2022/11/23 01:16:19;;;;;;;66.25;28.80;;;1.00;99.90;;;;;;5063887;28;20298;-85
2022/11/23 01:18:47;;;;;;;56.50;26.05;;;1.40;99.90;;;;;;5064201;28;20207;-85
2022/11/23 01:21:14;;;;;;;65.00;27.10;;;1.40;99.90;;;;;;5040523;28;20268;-84
2022/11/23 01:23:50;;;;;;;61.85;29.23;;;1.30;99.90;;;;;;4983045;28;20210;-85
2022/11/23 01:26:22;;;;;;;55.50;26.52;;;0.20;99.90;;;;;;4988074;28;20243;-85
2022/11/23 01:28:49;;;;;;;49.53;26.05;;;1.10;99.90;;;;;;4986936;28;20236;-84
2022/11/23 01:31:18;;;;;;;57.55;25.42;;;1.30;99.90;;;;;;4982841;28;20230;-86
2022/11/23 01:33:46;;;;;;;53.65;27.48;;;1.40;99.90;;;;;;4982922;28;20297;-83
2022/11/23 01:36:15;;;;;;;53.63;25.92;;;1.40;99.90;;;;;;4981406;28;20305;-85
2022/11/23 01:38:49;;;;;;;52.47;25.50;;;1.20;99.90;;;;;;4982391;28;20706;-84
2022/11/23 01:41:23;;;;;;;46.47;25.27;;;1.50;99.90;;;;;;4981584;28;20225;-85
2022/11/23 01:44:00;;;;;;;67.78;30.25;;;1.50;99.90;;;;;;4981493;28;20190;-84
2022/11/23 01:46:27;;;;;;;53.20;25.52;;;1.30;99.90;;;;;;4982382;28;20279;-86
2022/11/23 01:48:57;;;;;;;65.13;28.20;;;1.60;99.90;;;;;;4980169;28;20221;-85
2022/11/23 01:51:30;;;;;;;55.97;27.27;;;1.30;99.90;;;;;;4976841;28;20246;-84
2022/11/23 01:54:09;;;;;;;58.75;27.15;;;1.70;99.90;;;;;;4979142;28;20210;-85
2022/11/23 01:56:46;;;;;;;60.10;27.00;;;1.70;99.90;;;;;;4979253;28;20190;-85
2022/11/23 01:59:22;;;;;;;59.85;26.30;;;1.10;99.90;;;;;;4981827;28;20225;-85
2022/11/23 02:01:56;;;;;;;58.53;26.52;;;1.70;99.90;;;;;;4982369;28;20230;-86
2022/11/23 02:04:35;;;;;;;52.63;25.65;;;1.50;99.90;;;;;;4981200;28;20217;-86
2022/11/23 02:07:06;;;;;;;51.97;27.25;;;1.80;99.90;;;;;;4981787;28;20635;-85
2022/11/23 02:09:43;;;;;;;53.40;26.98;;;1.60;99.90;;;;;;4984270;28;20217;-84
2022/11/23 02:12:15;;;;;;;44.90;24.75;;;1.30;99.90;;;;;;4984429;28;20233;-85
2022/11/23 02:14:46;;;;;;;58.50;27.00;;;1.60;99.90;;;;;;4989109;28;20623;-83
2022/11/23 02:17:17;;;;;;;50.63;25.63;;;1.30;99.90;;;;;;4990846;28;20194;-83
2022/11/23 02:19:58;;;;;;;60.53;28.75;;;1.30;99.90;;;;;;4990926;28;20246;-83
2022/11/23 02:22:36;;;;;;;55.53;27.08;;;1.60;99.90;;;;;;4989816;28;20229;-84
2022/11/23 02:25:16;;;;;;;53.10;27.50;;;1.50;99.90;;;;;;4991053;28;20222;-82
2022/11/23 02:27:50;;;;;;;61.78;26.33;;;1.90;99.90;;;;;;4988241;28;20218;-83
2022/11/23 02:30:22;;;;;;;64.82;29.60;;;1.80;99.90;;;;;;4983349;28;20251;-85
2022/11/23 02:32:53;;;;;;;55.47;27.35;;;1.40;99.90;;;;;;4981721;28;20263;-85
2022/11/23 02:35:27;;;;;;;51.38;26.50;;;1.90;99.90;;;;;;4982612;28;20222;-84
2022/11/23 02:37:58;;;;;;;52.80;25.95;;;;;;;;;;4981854;28;20190;-84
2022/11/23 02:40:28;;;;;;;54.35;25.65;;;1.70;99.90;;;;;;4982292;28;20194;-85
2022/11/23 02:42:56;;;;;;;48.38;24.45;;;1.80;99.90;;;;;;4981072;28;20257;-84
2022/11/23 02:45:31;;;;;;;47.53;26.17;;;1.70;99.90;;;;;;4976269;28;20217;-85
2022/11/23 02:47:58;;;;;;;54.63;26.52;;;1.90;99.90;;;;;;4977099;28;20215;-84
2022/11/23 02:50:25;;;;;;;58.47;26.30;;;1.80;99.90;;;;;;4979952;28;20206;-83
2022/11/23 02:52:52;;;;;;;47.13;24.83;;;1.60;99.90;;;;;;4978912;28;20317;-84
2022/11/23 02:55:19;;;;;;;49.38;25.00;;;1.50;99.90;;;;;;4997068;28;20245;-83
2022/11/23 02:57:46;;;;;;;51.10;27.48;;;;;;;;;;4996939;28;20218;-83
2022/11/23 03:00:15;;;;;;;54.40;26.40;;;1.60;99.90;;;;;;4997440;28;20237;-83
2022/11/23 03:02:42;;;;;;;53.08;25.50;;;;;;;;;;4997163;28;20253;-84
2022/11/23 03:05:09;;;;;;;48.85;25.17;;;1.30;99.90;;;;;;4990904;28;20636;-84
2022/11/23 03:07:36;;;;;;;49.80;23.88;;;1.60;99.90;;;;;;4990303;28;20210;-86
2022/11/23 03:10:04;;;;;;;49.60;25.42;;;1.60;99.90;;;;;;4989875;28;20640;-86
2022/11/23 03:12:31;;;;;;;44.10;23.05;;;1.90;99.90;;;;;;4988961;28;20656;-85
2022/11/23 03:14:58;;;;;;;55.65;27.08;;;;;;;;;;4988751;28;20290;-86
2022/11/23 03:17:26;;;;;;;55.83;24.33;;;1.20;99.90;;;;;;4987851;28;20206;-84
2022/11/23 03:19:54;;;;;;;54.10;27.27;;;1.10;99.90;;;;;;4988669;28;20228;-85
2022/11/23 03:22:21;;;;;;;52.45;26.45;;;;;;;;;;4992592;28;20233;-86
2022/11/23 03:24:47;;;;;;;59.75;26.55;;;1.60;99.90;;;;;;4988778;28;20199;-86
2022/11/23 03:27:14;;;;;;;53.35;24.95;;;1.50;99.90;;;;;;4989964;28;20242;-84
2022/11/23 03:29:41;;;;;;;49.08;25.23;;;1.60;99.90;;;;;;4996400;28;20237;-84
2022/11/23 03:32:08;;;;;;;48.08;25.50;;;1.60;99.90;;;;;;4996075;28;20230;-84
2022/11/23 03:34:36;;;;;;;56.20;25.10;;;1.30;99.90;;;;;;4986525;28;20257;-84
2022/11/23 03:37:03;;;;;;;51.22;26.35;;;1.30;99.90;;;;;;4983815;28;20210;-84
2022/11/23 03:39:33;;;;;;;47.35;25.70;;;1.10;99.90;;;;;;4984189;28;20210;-84
2022/11/23 03:42:00;;;;;;;45.08;25.70;;;1.30;99.90;;;;;;4984504;28;20226;-84
2022/11/23 03:44:27;;;;;;;52.00;26.38;;;1.40;99.90;;;;;;4984571;28;20225;-84
2022/11/23 03:46:54;;;;;;;57.33;25.52;;;1.10;99.90;;;;;;4984800;28;20225;-84
2022/11/23 03:49:21;;;;;;;51.20;26.15;;;1.10;99.90;;;;;;4984268;28;20209;-84
2022/11/23 03:51:49;;;;;;;51.95;25.98;;;1.60;99.90;;;;;;4984737;28;20230;-84
2022/11/23 03:54:16;;;;;;;56.08;27.55;;;1.40;99.90;;;;;;4984791;28;20206;-84
2022/11/23 03:56:43;;;;;;;50.15;26.05;;;1.20;99.90;;;;;;4983844;28;20283;-84
2022/11/23 03:59:10;;;;;;;53.45;26.10;;;1.60;99.90;;;;;;4984066;28;20220;-84
2022/11/23 04:01:37;;;;;;;53.40;25.92;;;1.20;99.90;;;;;;4983538;28;20293;-84
2022/11/23 04:04:04;;;;;;;52.40;24.13;;;1.30;99.90;;;;;;4981006;28;20278;-85
2022/11/23 04:06:31;;;;;;;56.65;25.38;;;1.00;99.90;;;;;;4983542;28;20279;-84
2022/11/23 04:08:59;;;;;;;55.10;27.25;;;1.00;99.90;;;;;;4983970;28;20281;-86
2022/11/23 04:11:26;;;;;;;49.25;25.10;;;1.40;99.90;;;;;;4986436;28;20317;-84
2022/11/23 04:13:53;;;;;;;58.28;26.42;;;1.40;99.90;;;;;;4984288;28;20597;-84
2022/11/23 04:16:19;;;;;;;54.40;25.33;;;1.30;99.90;;;;;;4983775;28;20222;-86
2022/11/23 04:18:46;;;;;;;46.22;24.77;;;1.00;99.90;;;;;;4982946;28;20241;-85
2022/11/23 04:21:13;;;;;;;46.05;25.00;;;1.00;99.90;;;;;;4983245;28;20269;-85
2022/11/23 04:23:40;;;;;;;52.72;26.00;;;1.00;99.90;;;;;;4983029;28;20297;-85
2022/11/23 04:26:08;;;;;;;57.13;26.75;;;1.30;99.90;;;;;;4986471;28;20201;-85
2022/11/23 04:28:35;;;;;;;58.88;25.77;;;0.90;99.90;;;;;;4983386;28;20277;-84
2022/11/23 04:31:02;;;;;;;48.15;25.33;;;;;;;;;;4982453;28;20249;-84
2022/11/23 04:33:30;;;;;;;61.10;28.25;;;1.60;99.90;;;;;;4983396;28;20202;-85
2022/11/23 04:35:57;;;;;;;60.05;26.90;;;1.50;99.90;;;;;;4990836;28;20248;-82
2022/11/23 04:38:24;;;;;;;55.85;26.85;;;1.40;99.90;;;;;;4993661;28;20206;-83
2022/11/23 04:40:50;;;;;;;49.85;27.60;;;1.50;99.90;;;;;;4993991;28;20265;-84
2022/11/23 04:43:19;;;;;;;51.00;26.27;;;1.30;99.90;;;;;;4993789;28;20244;-83
2022/11/23 04:45:45;;;;;;;57.20;25.58;;;1.20;99.90;;;;;;4992095;28;20234;-86
2022/11/23 04:48:12;;;;;;;52.88;26.55;;;1.10;99.90;;;;;;4989814;28;20634;-85
2022/11/23 04:50:40;;;;;;;58.10;25.23;;;0.40;99.90;;;;;;4983858;28;20289;-85
2022/11/23 04:53:08;;;;;;;56.17;26.98;;;1.40;99.90;;;;;;4984910;28;20603;-84
2022/11/23 04:55:34;;;;;;;54.08;26.95;;;1.20;99.90;;;;;;4984581;28;20289;-86
2022/11/23 04:58:01;;;;;;;60.70;27.42;;;1.10;99.90;;;;;;4983645;28;20278;-86
2022/11/23 05:00:30;;;;;;;55.03;25.47;;;;;;;;;;4984077;28;20548;-86
2022/11/23 05:03:00;;;;;;;42.58;25.40;;;1.50;99.90;;;;;;4983812;28;20526;-86
2022/11/23 05:05:27;;;;;;;57.50;27.70;;;0.90;99.90;;;;;;4983890;28;20605;-86
2022/11/23 05:07:55;;;;;;;49.05;26.15;;;1.40;99.90;;;;;;4984381;28;20209;-86
2022/11/23 05:10:22;;;;;;;48.42;25.63;;;1.40;99.90;;;;;;4983781;28;20222;-86
2022/11/23 05:12:49;;;;;;;51.67;26.15;;;1.10;99.90;;;;;;4982233;28;20225;-86
2022/11/23 05:15:18;;;;;;;46.15;24.92;;;1.50;99.90;;;;;;4987450;28;20241;-84
2022/11/23 05:17:47;;;;;;;49.45;24.80;;;0.80;99.90;;;;;;4986222;28;20202;-85
2022/11/23 05:20:14;;;;;;;51.35;24.88;;;1.40;99.90;;;;;;4983382;28;20641;-86
2022/11/23 05:22:41;;;;;;;56.75;25.23;;;1.40;99.90;;;;;;4983203;28;20253;-85
2022/11/23 05:25:09;;;;;;;55.42;25.08;;;1.40;99.90;;;;;;4983385;28;20293;-85
2022/11/23 05:27:36;;;;;;;53.95;24.50;;;0.90;99.90;;;;;;4983563;28;20301;-86
2022/11/23 05:30:03;;;;;;;53.40;25.40;;;;;;;;;;4984427;28;20289;-85
2022/11/23 05:32:30;;;;;;;50.65;26.58;;;;;;;;;;4987132;28;20327;-85
2022/11/23 05:34:58;;;;;;;54.95;28.73;;;1.40;99.90;;;;;;4993152;28;20461;-84
2022/11/23 05:37:26;;;;;;;56.92;28.88;;;;;;;;;;4995202;28;20228;-85
2022/11/23 05:39:53;;;;;;;55.13;26.75;;;1.30;99.90;;;;;;4991632;28;20202;-85
2022/11/23 05:42:19;;;;;;;52.17;25.73;;;1.20;99.90;;;;;;4993046;28;20289;-84
2022/11/23 05:44:46;;;;;;;48.03;25.48;;;1.20;99.90;;;;;;4992465;28;20213;-84
2022/11/23 05:47:13;;;;;;;42.65;23.83;;;1.30;99.90;;;;;;4992511;28;20237;-83
2022/11/23 05:49:40;;;;;;;46.00;24.77;;;1.20;99.90;;;;;;4991718;28;20247;-85
2022/11/23 05:52:08;;;;;;;48.70;25.85;;;1.70;99.90;;;;;;4990488;28;20238;-84
2022/11/23 05:54:35;;;;;;;46.53;23.85;;;1.10;99.90;;;;;;4991250;28;20240;-83
2022/11/23 05:57:05;;;;;;;59.78;28.73;;;1.90;99.90;;;;;;4986272;28;20241;-85
2022/11/23 05:59:32;;;;;;;48.60;23.80;;;;;;;;;;4986130;28;20225;-85
2022/11/23 06:01:59;;;;;;;46.95;25.13;;;1.50;99.90;;;;;;4983227;28;20313;-85
2022/11/23 06:04:26;;;;;;;48.45;23.13;;;1.60;99.90;;;;;;4982766;28;20296;-85
2022/11/23 06:06:56;;;;;;;50.78;23.40;;;1.40;99.90;;;;;;4982699;28;20305;-85
2022/11/23 06:09:24;;;;;;;47.92;23.00;;;1.20;99.90;;;;;;4982971;28;20292;-85
2022/11/23 06:11:51;;;;;;;55.72;24.83;;;1.10;99.90;;;;;;4988803;28;20289;-84
2022/11/23 06:14:17;;;;;;;43.28;24.55;;;1.60;99.90;;;;;;4994736;28;20320;-83
2022/11/23 06:16:44;;;;;;;42.22;24.00;;;1.20;99.90;;;;;;4991178;28;20324;-84
2022/11/23 06:19:11;;;;;;;46.75;23.83;;;1.60;99.90;;;;;;4986216;28;20266;-85
2022/11/23 06:21:43;;;;;;;43.40;23.05;;;;;;;;;;4998646;22;20597;-87
2022/11/23 06:24:47;;;;;;;41.72;22.85;;;;;;;;;;4960899;28;20209;-86
2022/11/23 06:27:17;;;;;;;42.25;22.50;;;;;;;;;;4959006;29;20586;-87
2022/11/23 06:29:50;;;;;;;45.40;23.15;;;;;;;;;;4976831;28;20187;-87
2022/11/23 06:32:18;;;;;;;42.08;23.48;;;;;;;;;;4976761;28;20226;-85
2022/11/23 06:34:45;;;;;;;42.33;24.38;;;;;;;;;;4976306;28;20186;-85
2022/11/23 06:37:12;;;;;;;52.90;24.70;;;;;;;;;;4961502;28;20325;-86
2022/11/23 06:39:40;;;;;;;41.00;25.33;;;;;;;;;;4962265;28;20210;-86
2022/11/23 06:42:11;;;;;;;42.72;23.60;;;;;;;;;;4976437;28;20233;-86
2022/11/23 06:44:40;;;;;;;42.55;23.63;;;;;;;;;;4975927;28;20171;-87
2022/11/23 06:47:07;;;;;;;52.75;23.73;;;;;;;;;;4962030;28;20203;-87
2022/11/23 06:49:37;;;;;;;42.33;22.42;;;;;;;;;;4967958;28;20195;-87
2022/11/23 06:52:36;;;;;;;49.08;22.65;;;;;;;;;;4973643;28;20229;-88
2022/11/23 06:55:44;;;;;;;44.03;22.25;;;1.30;99.90;;;;;;4962732;29;20210;-87
2022/11/23 06:58:22;;;;;;;47.22;22.90;;;;;;;;;;4958310;28;20718;-87
2022/11/23 07:01:17;;;;;;;46.55;23.65;;;1.30;99.90;;;;;;4957686;28;20217;-87
2022/11/23 07:04:22;;;;;;;44.15;21.65;;;1.30;99.90;;;;;;4956390;29;20215;-87
2022/11/23 07:09:48;;;;;;;44.55;22.60;;;;;;;;;;4960715;28;20247;-86
2022/11/23 07:12:26;;;;;;;50.03;24.50;;;;;;;;;;4958291;28;20242;-86
2022/11/23 07:15:06;;;;;;;49.42;24.80;;;;;;;;;;4960048;28;20203;-87
2022/11/23 07:18:01;;;;;;;42.75;23.35;;;;;;;;;;4961263;28;20234;-86
2022/11/23 07:20:33;;;;;;;43.03;24.05;;;;;;;;;;4958386;28;20581;-86
2022/11/23 07:23:08;;;;;;;52.53;24.75;;;1.30;99.90;;;;;;4958005;28;20724;-86
2022/11/23 07:25:43;;;;;;;42.20;24.00;;;;;;;;;;4957821;29;20264;-86
2022/11/23 07:28:15;;;;;;;48.42;25.50;;;1.30;99.90;;;;;;4958830;28;20283;-86
2022/11/23 07:30:52;;;;;;;44.50;23.80;;;;;;;;;;4957459;28;20210;-87
2022/11/23 07:33:25;;;;;;;44.58;25.13;;;;;;;;;;4961285;28;20260;-87
2022/11/23 07:38:38;;;;;;;53.35;24.33;;;;;;;;;;4966848;28;20199;-86
2022/11/23 07:41:12;;;;;;;49.72;25.48;;;;;;;;;;4966109;28;20225;-86
2022/11/23 07:43:39;;;;;;;48.60;24.05;;;;;;;;;;4958039;28;20216;-86
2022/11/23 07:46:10;;;;;;;43.28;24.45;;;;;;;;;;4958093;28;20574;-85
2022/11/23 07:48:39;;;;;;;40.60;22.23;;;;;;;;;;4958611;28;20244;-86
2022/11/23 07:51:06;;;;;;;47.50;27.35;;;;;;;;;;4959119;28;20224;-87
2022/11/23 07:53:35;;;;;;;47.45;23.13;;;;;;;;;;4958871;28;20211;-86
2022/11/23 07:56:02;;;;;;;44.58;23.85;;;;;;;;;;4959363;28;20227;-87
2022/11/23 07:58:33;;;;;;;45.00;23.65;;;;;;;;;;4959293;28;20206;-87
2022/11/23 08:01:01;;;;;;;50.33;24.67;;;;;;;;;;4961013;28;20210;-87
2022/11/23 08:03:30;;;;;;;43.42;22.80;;;;;;;;;;4978620;28;20251;-86
2022/11/23 08:05:58;;;;;;;59.72;25.42;;;1.40;99.90;;;;;;4977803;28;20217;-88
2022/11/23 08:08:25;;;;;;;41.17;23.13;;;1.40;99.90;;;;;;4964214;29;20238;-86
2022/11/23 08:10:52;;;;;;;43.50;22.77;;;1.40;99.90;;;;;;4961155;28;20321;-88
2022/11/23 08:13:19;;;;;;;38.70;21.38;;;1.20;99.90;;;;;;4960383;29;20207;-87
2022/11/23 08:15:46;;;;;;;35.83;20.48;;;1.40;99.90;;;;;;4967975;29;20222;-86
2022/11/23 08:18:13;;;;;;;40.67;21.85;;;1.80;99.90;;;;;;4958429;29;20211;-86
2022/11/23 08:20:40;;;;;;;42.92;21.35;;;1.40;99.90;;;;;;4970343;28;20254;-85
2022/11/23 08:23:08;;;;;;;42.38;21.90;;;1.50;99.90;;;;;;4969011;28;20242;-86
2022/11/23 08:25:36;;;;;;;44.80;23.95;;;1.60;99.90;;;;;;4975420;29;20215;-85
2022/11/23 08:28:05;;;;;;;41.50;24.73;;;2.10;99.90;;;;;;4975404;28;20666;-86
2022/11/23 08:30:35;;;;;;;40.25;22.63;;;1.70;99.90;;;;;;4963668;28;20238;-86
2022/11/23 08:33:03;;;;;;;38.63;22.83;;;0.80;99.90;;;;;;4957299;28;20291;-87
2022/11/23 08:35:30;;;;;;;39.95;21.90;;;2.00;99.90;;;;;;4958334;29;20299;-87
2022/11/23 08:37:57;;;;;;;42.75;23.30;;;2.10;99.90;;;;;;4963983;29;20241;-87
2022/11/23 08:40:26;;;;;;;36.35;21.45;;;2.30;99.90;;;;;;4977060;28;20187;-86
2022/11/23 08:42:54;;;;;;;43.47;22.42;;;2.20;99.90;;;;;;4974781;28;20280;-86
2022/11/23 08:45:21;;;;;;;39.42;22.88;;;;;;;;;;4974620;29;20238;-86
2022/11/23 08:47:48;;;;;;;35.95;21.27;;;2.00;99.90;;;;;;4976186;28;20206;-87
2022/11/23 08:50:15;;;;;;;39.05;21.70;;;2.00;99.90;;;;;;4975904;28;20203;-86
2022/11/23 08:52:42;;;;;;;36.92;20.42;;;2.30;99.90;;;;;;4978223;28;20219;-86
2022/11/23 08:55:14;;;;;;;38.33;23.50;;;2.10;99.90;;;;;;4963293;29;20207;-85
2022/11/23 08:57:42;;;;;;;42.75;24.27;;;2.40;99.90;;;;;;4961732;28;20318;-87
2022/11/23 09:00:10;;;;;;;43.88;22.95;;;2.40;99.90;;;;;;4959470;29;20293;-87
2022/11/23 09:02:37;;;;;;;47.25;23.70;;;2.50;99.90;;;;;;4958506;28;20234;-85
2022/11/23 09:05:06;;;;;;;36.17;21.98;;;2.20;99.90;;;;;;4958548;29;20627;-86
2022/11/23 09:07:33;;;;;;;36.67;22.95;;;2.60;99.90;;;;;;4957740;29;20658;-87
2022/11/23 09:10:20;;;;;;;40.70;20.27;;;3.00;99.90;;;;;;4958587;29;20206;-87
2022/11/23 09:12:52;;;;;;;37.97;22.17;;;;;;;;;;4956727;28;20246;-86
2022/11/23 09:15:22;;;;;;;38.38;22.70;;;;;;;;;;4957126;28;20198;-87
2022/11/23 09:17:50;;;;;;;37.70;23.60;;;;;;;;;;4956435;28;20313;-87
2022/11/23 09:20:19;;;;;;;44.95;22.77;;;;;;;;;;4956396;28;20207;-87
2022/11/23 09:22:51;;;;;;;39.78;22.40;;;;;;;;;;4956458;28;20747;-87
2022/11/23 09:25:19;;;;;;;36.53;21.45;;;;;;;;;;4956863;28;20195;-88
2022/11/23 09:27:46;;;;;;;34.50;21.00;;;;;;;;;;4955738;28;20207;-87
2022/11/23 09:30:16;;;;;;;35.75;21.13;;;;;;;;;;4956314;28;20207;-87
2022/11/23 09:32:43;;;;;;;34.00;19.00;;;;;;;;;;4966508;28;20227;-88
2022/11/23 09:35:14;;;;;;;39.63;20.95;;;;;;;;;;4970863;28;20236;-87
2022/11/23 09:37:48;;;;;;;36.33;20.80;;;;;;;;;;4970260;28;20215;-87
2022/11/23 09:44:04;;;;;;;36.38;20.02;;;2.90;99.90;;;;;;5004089;28;20177;-87
2022/11/23 09:46:52;;;;;;;28.60;19.33;;;3.10;99.90;;;;;;4960016;29;20195;-87
2022/11/23 09:49:55;;;;;;;35.15;19.48;;;3.20;99.90;;;;;;4958460;28;20281;-87
2022/11/23 09:52:29;;;;;;;31.30;19.95;;;;;;;;;;4934118;29;20226;-87
2022/11/23 09:55:41;;;;;;;33.08;19.02;;;3.30;99.90;;;;;;4955979;28;20198;-87
2022/11/23 09:58:59;;;;;;;32.83;18.33;;;3.40;99.90;;;;;;4969967;29;20242;-87
2022/11/23 10:01:29;;;;;;;34.35;19.27;;;;;;;;;;4958391;28;20589;-87
2022/11/23 10:04:20;;;;;;;30.13;18.08;;;3.50;99.90;;;;;;4957536;29;20210;-88
2022/11/23 10:06:54;;;;;;;40.58;21.08;;;3.50;99.90;;;;;;4955131;29;20222;-89
2022/11/23 10:09:28;;;;;;;33.88;18.88;;;;;;;;;;4976197;28;20254;-89
2022/11/23 10:12:22;;;;;;;30.25;17.92;;;3.70;99.90;;;;;;4968057;28;20276;-88
2022/11/23 10:15:01;;;;;;;34.30;18.92;;;3.70;99.90;;;;;;4957644;28;20217;-89
2022/11/23 10:17:56;;;;;;;26.05;17.52;;;3.70;99.90;;;;;;4958116;28;20241;-89
2022/11/23 10:20:45;;;;;;;31.23;17.20;;;3.70;99.90;;;;;;4958320;29;20207;-87
2022/11/23 10:23:18;;;;;;;27.92;16.25;;;3.80;99.90;;;;;;4960448;28;20257;-89
2022/11/23 10:25:48;;;;;;;30.50;18.95;;;;;;;;;;4970524;29;20264;-89
2022/11/23 10:28:21;;;;;;;35.67;18.17;;;3.80;99.90;;;;;;4975164;28;20183;-88
2022/11/23 10:30:55;;;;;;;24.90;17.27;;;3.90;99.90;;;;;;4976540;28;20226;-89
2022/11/23 10:33:31;;;;;;;32.45;18.75;;;3.90;99.90;;;;;;4976789;28;20232;-89
2022/11/23 10:36:00;;;;;;;34.85;20.13;;;;;;;;;;4976703;28;20254;-88
2022/11/23 10:38:28;;;;;;;24.40;15.88;;;4.00;99.90;;;;;;4972364;28;20693;-88
2022/11/23 10:41:02;;;;;;;35.17;17.65;;;4.10;99.90;;;;;;4958050;28;20237;-88
2022/11/23 10:43:35;;;;;;;32.45;16.90;;;4.20;99.90;;;;;;4959434;28;20292;-88
2022/11/23 10:46:31;;;;;;;31.48;18.83;;;4.20;99.90;;;;;;4957928;28;20191;-88
2022/11/23 10:49:17;;;;;;;25.33;15.80;;;4.20;99.90;;;;;;4958028;29;20210;-88
2022/11/23 10:52:04;;;;;;;32.90;17.45;;;4.30;99.90;;;;;;4956309;28;20257;-88
2022/11/23 10:54:33;;;;;;;25.40;16.05;;;4.40;99.90;;;;;;4957558;29;20191;-89
2022/11/23 10:57:02;;;;;;;29.70;18.58;;;4.70;99.90;;;;;;4966301;29;20232;-88
2022/11/23 10:59:52;;;;;;;31.90;18.08;;;4.50;99.90;;;;;;4969588;28;20253;-88
2022/11/23 11:02:25;;;;;;;32.95;18.50;;;;;;;;;;4974576;28;20206;-88
2022/11/23 11:05:27;;;;;;;29.90;19.10;;;4.60;99.90;;;;;;4976377;28;20190;-88
2022/11/23 11:08:02;;;;;;;32.63;17.25;;;4.70;99.90;;;;;;4976497;28;20233;-88
2022/11/23 11:10:33;;;;;;;23.75;15.27;;;;;;;;;;4974250;28;20178;-87
2022/11/23 11:13:01;;;;;;;23.38;15.27;;;;;;;;;;4968517;28;20223;-88
2022/11/23 11:15:28;;;;;;;29.75;17.95;;;;;;;;;;4971094;29;20271;-87
2022/11/23 11:17:57;;;;;;;29.15;17.95;;;5.30;99.90;;;;;;4974803;28;20261;-86
2022/11/23 11:20:30;;;;;;;28.05;18.00;;;5.20;99.90;;;;;;4967049;29;20627;-87
2022/11/23 11:23:00;;;;;;;25.13;16.88;;;5.20;99.90;;;;;;4959566;28;20262;-88
2022/11/23 11:25:31;;;;;;;32.65;20.65;;;4.90;99.90;;;;;;4959988;28;20214;-88
2022/11/23 11:27:59;;;;;;;24.83;15.10;;;5.40;99.90;;;;;;4959742;28;20203;-88
2022/11/23 11:30:42;;;;;;;26.92;17.08;;;5.40;99.90;;;;;;4965236;29;20210;-88
2022/11/23 11:33:14;;;;;;;25.88;17.35;;;4.90;99.90;;;;;;4976074;28;20720;-88
2022/11/23 11:35:45;;;;;;;23.63;14.50;;;4.80;99.90;;;;;;4961132;28;20229;-88
2022/11/23 11:38:20;;;;;;;23.10;15.07;;;5.70;99.90;;;;;;4959994;28;20219;-88
2022/11/23 11:40:48;;;;;;;27.75;17.80;;;4.90;99.90;;;;;;4959759;28;20267;-88
2022/11/23 11:43:21;;;;;;;28.50;16.10;;;5.20;99.90;;;;;;4959342;28;20231;-87
2022/11/23 11:45:54;;;;;;;24.30;16.45;;;5.10;99.90;;;;;;4959236;28;20281;-87
2022/11/23 11:48:27;;;;;;;29.67;16.95;;;5.20;99.90;;;;;;4959761;29;20212;-87
2022/11/23 11:50:58;;;;;;;30.15;17.50;;;6.10;99.90;;;;;;4960170;28;20244;-88
2022/11/23 11:53:39;;;;;;;29.40;18.27;;;5.60;99.90;;;;;;4961332;28;20665;-88
2022/11/23 11:56:16;;;;;;;25.50;14.75;;;5.40;99.90;;;;;;4959295;29;20237;-88
2022/11/23 11:58:54;;;;;;;28.95;15.63;;;6.20;99.90;;;;;;4963460;28;20206;-87
2022/11/23 12:01:30;;;;;;;22.92;15.45;;;5.80;99.90;;;;;;4958301;28;20799;-88
2022/11/23 12:04:05;;;;;;;22.42;15.18;;;5.70;99.90;;;;;;4959098;29;20293;-88
2022/11/23 12:06:40;;;;;;;24.08;17.00;;;5.70;99.90;;;;;;4959862;28;20289;-88
2022/11/23 12:09:14;;;;;;;24.75;15.18;;;5.70;99.90;;;;;;4960084;28;20202;-89
2022/11/23 12:12:11;;;;;;;30.63;18.50;;;;;;;;;;4960113;28;20225;-89
2022/11/23 12:14:54;;;;;;;22.92;13.73;;;;;;;;;;4959939;28;20217;-88
2022/11/23 12:18:02;;;;;;;;;;;;;;;;;;;;;
2022/11/23 12:20:55;;;;;;;23.48;15.73;;;5.70;99.90;;;;;;4974710;29;20209;-88
2022/11/23 12:23:38;;;;;;;27.65;15.35;;;5.80;99.90;;;;;;5078511;22;20265;-85
2022/11/23 12:26:20;;;;;;;22.33;13.68;;;5.80;99.90;;;;;;5065397;28;20211;-85
2022/11/23 12:29:10;;;;;;;23.85;14.93;;;5.60;99.90;;;;;;5065935;28;20694;-87
2022/11/23 12:31:44;;;;;;;21.83;15.18;;;5.80;99.90;;;;;;5066739;28;20661;-85
2022/11/23 12:34:37;;;;;;;22.02;13.32;;;5.80;99.90;;;;;;5067290;28;20198;-85
2022/11/23 12:37:35;;;;;;;20.55;13.88;;;5.80;99.90;;;;;;5069462;28;20271;-85
2022/11/23 12:40:20;;;;;;;21.73;12.57;;;5.80;99.90;;;;;;5048986;28;20256;-85
2022/11/23 12:42:51;;;;;;;23.38;15.98;;;5.80;99.90;;;;;;5071263;28;20237;-85
2022/11/23 12:45:37;;;;;;;19.48;13.57;;;6.00;99.90;;;;;;5068765;28;20198;-85
2022/11/23 12:48:20;;;;;;;26.65;15.18;;;5.80;99.90;;;;;;5074990;28;20223;-85
2022/11/23 12:50:54;;;;;;;21.33;12.95;;;5.80;99.90;;;;;;5079725;28;20203;-84
2022/11/23 12:53:40;;;;;;;25.23;14.88;;;5.90;99.90;;;;;;5079673;28;20233;-85
2022/11/23 12:56:23;;;;;;;21.05;13.80;;;5.90;99.90;;;;;;5077712;28;20290;-85
2022/11/23 12:58:54;;;;;;;20.98;14.57;;;5.90;99.90;;;;;;5074882;28;20701;-83
2022/11/23 13:01:26;;;;;;;24.35;14.95;;;5.90;99.90;;;;;;5071256;28;20205;-83
2022/11/23 13:04:24;;;;;;;20.40;14.93;;;5.80;99.90;;;;;;5065213;28;20187;-85
2022/11/23 13:07:19;;;;;;;21.02;13.82;;;5.90;99.90;;;;;;5062874;28;20199;-84
2022/11/23 13:10:02;;;;;;;21.27;14.00;;;6.20;99.90;;;;;;5062131;28;20192;-84
2022/11/23 13:12:57;;;;;;;23.92;14.43;;;5.90;99.90;;;;;;5061479;28;20223;-84
2022/11/23 13:15:41;;;;;;;25.67;14.88;;;6.00;99.90;;;;;;5061931;28;20654;-84
2022/11/23 13:18:19;;;;;;;32.92;15.70;;;6.10;99.90;;;;;;5061511;28;20243;-83
2022/11/23 13:21:12;;;;;;;17.73;12.07;;;5.90;99.90;;;;;;5061159;28;20191;-84
2022/11/23 13:23:40;;;;;;;23.40;14.65;;;6.40;99.90;;;;;;4995645;28;20247;-83
2022/11/23 13:26:15;;;;;;;22.40;14.77;;;6.30;99.90;;;;;;4995507;28;20228;-83
2022/11/23 13:28:42;;;;;;;22.80;14.30;;;6.30;99.90;;;;;;4991484;28;20206;-84
2022/11/23 13:31:24;;;;;;;21.35;14.38;;;5.90;99.90;;;;;;4980192;28;20210;-83
2022/11/23 13:33:54;;;;;;;24.25;14.20;;;6.00;99.90;;;;;;4979106;28;20190;-86
2022/11/23 13:36:44;;;;;;;20.75;13.10;;;6.00;99.90;;;;;;4978175;28;20206;-84